CYQF

Red Deer Regional Airport

Red Deer, Alberta, Canada
METAR CYQF 192000Z 17010G19KT 140V270 15SM SCT068 25/08 A3014 RMK CU4 SLP212 DENSITY ALT 4500FT
Observed Flight Rules
Jun-19 @ 20:00 UTC (13 minutes ago) Visual Flight Rules
Wind Visibility Clouds
170° at 10 knots
 Gusting to 19 knots
15 miles
  • Scattered at 6,800' AGL
Temperatures Readings
Current 25°C / 77°F
Dewpoint 8°C / 46°F
Humidity 34%
Altimeter 30.14" Hg
Pressure 1021.2 hPa
Elevation 905
METAR CYQF 192000Z 17010G19KT 140V270 15SM SCT068 25/08 A3014 RMK CU4 SLP212 DENSITY ALT 4500FT
Observed Flight Rules
Jun-19 @ 20:00 UTC
(13 minutes ago)
VFR
Wind Visibility
170° at 10 knots
 Gusting to 19 knots
15 miles
Clouds
  • Scattered at 6,800' AGL
Temperature Dewpoint
25°C / 77°F 8°C / 46°F
Humidity Altimeter Pressure
34% 30.14" Hg 1021.2 hPa